Time;durP1;ratioP1;P1;durP2;ratioP2;P2;SDS_P1;SDS_P2;PMS_P1;PMS_P2;Temp;Humidity;BMP_temperature;BMP_pressure;BME280_temperature;BME280_humidity;BME280_pressure;Samples;Min_cycle;Max_cycle;Signal;HPM_P1;HPM_P2
2021/03/11 00:02:20;;;;;;;1.70;1.27;;;0.90;96.50;;;;;;5058122;28;20187;-70
2021/03/11 00:04:46;;;;;;;1.07;1.07;;;0.90;96.20;;;;;;5057500;28;20978;-71
2021/03/11 00:07:12;;;;;;;0.97;0.97;;;0.90;96.10;;;;;;5056634;28;20633;-70
2021/03/11 00:09:38;;;;;;;1.40;1.30;;;0.80;96.00;;;;;;5065384;28;20249;-70
2021/03/11 00:12:06;;;;;;;1.30;1.20;;;0.80;96.00;;;;;;5056089;28;20187;-72
2021/03/11 00:14:32;;;;;;;1.03;1.03;;;0.80;96.20;;;;;;5066371;28;20190;-71
2021/03/11 00:16:58;;;;;;;1.30;1.03;;;0.70;96.20;;;;;;5063981;28;20287;-71
2021/03/11 00:19:25;;;;;;;3.83;1.80;;;0.70;96.20;;;;;;5039741;28;20194;-71
2021/03/11 00:21:51;;;;;;;3.03;1.30;;;0.70;96.20;;;;;;5051787;28;20194;-71
2021/03/11 00:24:17;;;;;;;4.70;1.93;;;0.70;96.30;;;;;;5055049;28;20261;-71
2021/03/11 00:26:43;;;;;;;1.40;1.40;;;0.70;96.40;;;;;;5061515;28;20187;-70
2021/03/11 00:29:09;;;;;;;2.00;1.87;;;0.70;96.30;;;;;;5063714;28;20184;-71
2021/03/11 00:31:34;;;;;;;1.87;1.60;;;0.70;96.20;;;;;;5061810;28;20182;-70
2021/03/11 00:34:00;;;;;;;2.40;1.70;;;0.70;96.10;;;;;;5061789;28;20178;-71
2021/03/11 00:36:25;;;;;;;1.70;1.53;;;0.60;96.00;;;;;;5064906;28;20182;-71
2021/03/11 00:38:51;;;;;;;5.03;1.60;;;0.60;95.90;;;;;;5063726;28;20607;-71
2021/03/11 00:41:17;;;;;;;3.67;1.63;;;0.60;96.00;;;;;;5059154;28;20272;-70
2021/03/11 00:43:42;;;;;;;1.57;1.20;;;0.50;96.00;;;;;;5059856;28;20261;-70
2021/03/11 00:46:08;;;;;;;1.30;1.30;;;0.50;96.10;;;;;;5062274;28;20257;-70
2021/03/11 00:48:34;;;;;;;1.10;1.10;;;0.50;96.00;;;;;;5065363;28;20190;-71
2021/03/11 00:50:59;;;;;;;3.67;1.80;;;0.50;96.10;;;;;;5064067;28;20278;-70
2021/03/11 00:53:25;;;;;;;0.80;0.80;;;0.50;96.10;;;;;;5064847;28;20187;-71
2021/03/11 00:55:51;;;;;;;2.00;1.50;;;0.50;96.10;;;;;;5064709;28;21002;-71
2021/03/11 00:58:17;;;;;;;1.17;1.13;;;0.40;96.10;;;;;;5059884;28;20266;-70
2021/03/11 01:00:42;;;;;;;1.30;1.30;;;0.40;96.10;;;;;;5061191;28;20183;-70
2021/03/11 01:03:08;;;;;;;1.37;1.30;;;0.40;96.20;;;;;;5060297;28;20566;-71
2021/03/11 01:05:35;;;;;;;1.50;1.50;;;0.40;96.30;;;;;;5057369;28;20187;-71
2021/03/11 01:08:00;;;;;;;1.17;1.10;;;0.40;96.20;;;;;;5065058;28;20205;-71
2021/03/11 01:10:26;;;;;;;0.93;0.93;;;0.40;96.30;;;;;;5060066;28;20188;-70
2021/03/11 01:12:52;;;;;;;2.70;1.13;;;0.30;96.40;;;;;;5051477;28;20187;-70
2021/03/11 01:15:18;;;;;;;1.43;1.40;;;0.30;96.50;;;;;;5059249;28;20201;-69
2021/03/11 01:17:43;;;;;;;1.30;1.30;;;0.30;96.60;;;;;;5058059;28;20203;-70
2021/03/11 01:20:18;;;;;;;0.93;0.93;;;0.30;96.60;;;;;;5064056;28;20251;-70
2021/03/11 01:22:44;;;;;;;1.27;1.00;;;0.30;96.50;;;;;;5063588;28;20185;-70
2021/03/11 01:25:10;;;;;;;1.70;1.60;;;0.30;96.40;;;;;;5037657;28;21188;-70
2021/03/11 01:27:36;;;;;;;1.33;1.23;;;0.30;96.50;;;;;;5062536;28;20624;-70
2021/03/11 01:30:05;;;;;;;3.70;1.23;;;0.30;96.50;;;;;;5064711;28;20188;-70
2021/03/11 01:32:31;;;;;;;1.77;1.60;;;0.30;96.50;;;;;;5065012;28;20218;-70
2021/03/11 01:34:57;;;;;;;2.03;1.33;;;0.30;96.40;;;;;;5059309;28;20668;-70
2021/03/11 01:37:22;;;;;;;2.93;1.17;;;0.30;96.30;;;;;;5064522;28;20199;-71
2021/03/11 01:39:48;;;;;;;1.63;1.23;;;0.30;96.20;;;;;;5061021;28;20781;-70
2021/03/11 01:42:14;;;;;;;1.20;1.20;;;0.30;96.10;;;;;;5063563;28;20198;-70
2021/03/11 01:44:39;;;;;;;2.30;2.20;;;0.30;95.70;;;;;;5060987;28;20749;-71
2021/03/11 01:47:05;;;;;;;1.37;1.00;;;0.30;95.80;;;;;;5060533;28;20273;-71
2021/03/11 01:49:31;;;;;;;1.17;1.10;;;0.30;95.80;;;;;;5064714;28;20210;-71
2021/03/11 01:51:56;;;;;;;1.27;1.27;;;0.30;95.90;;;;;;5046106;28;20208;-71
2021/03/11 01:54:23;;;;;;;1.77;1.67;;;0.30;96.00;;;;;;5060971;28;20562;-70
2021/03/11 01:56:50;;;;;;;1.50;1.50;;;0.30;95.80;;;;;;5035794;28;20302;-70
2021/03/11 01:59:16;;;;;;;3.83;1.47;;;0.30;95.20;;;;;;5038221;28;20222;-70
2021/03/11 02:01:42;;;;;;;1.50;1.50;;;0.40;95.50;;;;;;5042150;28;21001;-71
2021/03/11 02:04:08;;;;;;;1.13;0.97;;;0.30;95.50;;;;;;5063969;28;20186;-71
2021/03/11 02:06:34;;;;;;;1.23;1.13;;;0.30;95.70;;;;;;5064620;28;20217;-70
2021/03/11 02:08:59;;;;;;;1.13;0.93;;;0.30;95.70;;;;;;5059483;28;20651;-70
2021/03/11 02:11:27;;;;;;;1.10;1.10;;;0.30;95.70;;;;;;5054750;28;20239;-70
2021/03/11 02:14:04;;;;;;;1.33;1.17;;;0.30;95.70;;;;;;5058479;28;20182;-70
2021/03/11 02:16:31;;;;;;;1.20;1.20;;;0.40;95.50;;;;;;5063491;28;20181;-70
2021/03/11 02:19:02;;;;;;;1.27;1.23;;;0.40;95.70;;;;;;5038684;28;20210;-70
2021/03/11 02:21:41;;;;;;;1.07;0.93;;;0.40;95.40;;;;;;5077530;28;20194;-71
2021/03/11 02:25:03;;;;;;;1.10;1.10;;;0.40;95.20;;;;;;5055826;28;20183;-70
2021/03/11 02:27:40;;;;;;;1.23;1.23;;;0.40;95.00;;;;;;4998722;28;20189;-70
2021/03/11 02:30:06;;;;;;;1.13;1.13;;;0.50;95.10;;;;;;4995506;28;20193;-69
2021/03/11 02:32:35;;;;;;;0.93;0.93;;;0.50;95.10;;;;;;4994949;28;21187;-70
2021/03/11 02:35:03;;;;;;;1.20;1.10;;;0.40;94.90;;;;;;4982189;28;20284;-70
2021/03/11 02:37:37;;;;;;;1.00;1.00;;;0.40;94.90;;;;;;4994073;28;20216;-70
2021/03/11 02:40:13;;;;;;;1.17;0.93;;;0.40;94.80;;;;;;4982621;28;20235;-70
2021/03/11 02:42:40;;;;;;;1.13;1.13;;;0.40;94.80;;;;;;4993171;28;20193;-71
2021/03/11 02:45:07;;;;;;;1.23;1.23;;;0.40;94.80;;;;;;4996187;28;20208;-71
2021/03/11 02:47:35;;;;;;;3.10;1.07;;;0.30;94.70;;;;;;5000413;28;20553;-71
2021/03/11 02:50:02;;;;;;;1.00;1.00;;;0.30;94.60;;;;;;4997538;28;20279;-70
2021/03/11 02:52:29;;;;;;;1.00;1.00;;;0.30;94.60;;;;;;4993348;28;20215;-71
2021/03/11 02:54:56;;;;;;;1.00;1.00;;;0.30;94.60;;;;;;4975735;28;20216;-70
2021/03/11 02:57:23;;;;;;;0.80;0.80;;;0.20;94.10;;;;;;5002680;28;20219;-70
2021/03/11 02:59:52;;;;;;;0.73;0.73;;;0.10;94.40;;;;;;5053416;28;20198;-71
2021/03/11 03:02:18;;;;;;;0.97;0.93;;;0.00;94.40;;;;;;5062863;28;20203;-70
2021/03/11 03:04:56;;;;;;;1.43;1.17;;;0.10;94.80;;;;;;5060119;28;20186;-71
2021/03/11 03:07:23;;;;;;;0.80;0.80;;;0.10;94.70;;;;;;5059118;28;20190;-71
2021/03/11 03:09:52;;;;;;;0.97;0.80;;;0.20;94.70;;;;;;5053677;28;20690;-71
2021/03/11 03:12:19;;;;;;;0.90;0.90;;;0.20;94.80;;;;;;5036669;28;20614;-70
2021/03/11 03:14:48;;;;;;;0.83;0.83;;;0.30;94.60;;;;;;5059820;28;20255;-70
2021/03/11 03:17:19;;;;;;;0.77;0.77;;;0.30;94.40;;;;;;5064305;28;20214;-70
2021/03/11 03:19:46;;;;;;;0.90;0.90;;;0.20;93.90;;;;;;5051271;28;20248;-70
2021/03/11 03:22:13;;;;;;;0.87;0.87;;;0.20;94.20;;;;;;5055925;28;20183;-69
2021/03/11 03:24:40;;;;;;;4.27;0.70;;;0.30;94.40;;;;;;5061061;28;20202;-71
2021/03/11 03:27:08;;;;;;;1.10;1.10;;;0.30;94.40;;;;;;5057180;28;20251;-71
2021/03/11 03:29:35;;;;;;;0.80;0.80;;;0.30;94.40;;;;;;5064003;28;20198;-70
2021/03/11 03:32:01;;;;;;;1.10;1.10;;;0.20;94.10;;;;;;5061104;28;20208;-71
2021/03/11 03:34:28;;;;;;;2.27;0.90;;;0.20;94.00;;;;;;5062023;28;20182;-71
2021/03/11 03:36:54;;;;;;;0.90;0.90;;;0.20;94.00;;;;;;5054644;28;20683;-71
2021/03/11 03:39:19;;;;;;;0.93;0.93;;;0.20;94.30;;;;;;5057819;28;20175;-71
2021/03/11 03:41:48;;;;;;;0.73;0.73;;;0.20;94.60;;;;;;5063608;28;20203;-70
2021/03/11 03:44:19;;;;;;;0.93;0.93;;;0.20;94.70;;;;;;5044630;28;20191;-70
2021/03/11 03:46:46;;;;;;;0.80;0.80;;;0.30;94.60;;;;;;5064884;28;20178;-70
2021/03/11 03:49:14;;;;;;;1.10;1.10;;;0.30;94.60;;;;;;5063743;28;20687;-70
2021/03/11 03:51:45;;;;;;;2.00;1.43;;;0.30;94.50;;;;;;5039444;28;20182;-71
2021/03/11 03:54:34;;;;;;;1.03;1.03;;;0.30;94.40;;;;;;5059731;28;20216;-70
2021/03/11 03:57:21;;;;;;;2.03;1.40;;;0.30;94.50;;;;;;5064845;28;20182;-71
2021/03/11 03:59:50;;;;;;;1.27;1.20;;;0.30;94.30;;;;;;5055588;28;20179;-70
2021/03/11 04:02:18;;;;;;;1.07;1.07;;;0.30;94.10;;;;;;5067212;28;20207;-70
2021/03/11 04:04:47;;;;;;;2.30;0.80;;;0.30;94.20;;;;;;5060917;28;20742;-70
2021/03/11 04:07:19;;;;;;;1.33;1.20;;;0.20;92.70;;;;;;5058643;28;20190;-70
2021/03/11 04:09:46;;;;;;;1.03;0.80;;;0.20;93.20;;;;;;5062171;28;20275;-71
2021/03/11 04:12:14;;;;;;;0.77;0.77;;;0.20;93.30;;;;;;5038272;28;20190;-70
2021/03/11 04:14:41;;;;;;;0.87;0.87;;;0.20;93.70;;;;;;5062169;28;21060;-71
2021/03/11 04:17:07;;;;;;;1.27;1.00;;;0.20;94.00;;;;;;5045641;28;20217;-71
2021/03/11 04:19:37;;;;;;;0.80;0.80;;;0.20;94.30;;;;;;5066740;28;20195;-70
2021/03/11 04:22:04;;;;;;;0.70;0.70;;;0.20;94.30;;;;;;5046624;28;20651;-71
2021/03/11 04:24:31;;;;;;;0.93;0.93;;;0.10;94.10;;;;;;5065391;28;20704;-71
2021/03/11 04:27:00;;;;;;;1.20;1.20;;;0.20;94.10;;;;;;5055447;28;20188;-71
2021/03/11 04:29:27;;;;;;;1.60;1.60;;;0.20;94.00;;;;;;5057327;28;20182;-71
2021/03/11 04:31:53;;;;;;;4.53;1.37;;;0.20;94.10;;;;;;5038537;28;20186;-70
2021/03/11 04:34:19;;;;;;;1.83;1.73;;;0.20;94.00;;;;;;5039626;28;20186;-70
2021/03/11 04:36:45;;;;;;;2.80;1.03;;;0.20;93.90;;;;;;5056378;28;20194;-71
2021/03/11 04:39:11;;;;;;;3.13;1.10;;;0.30;93.90;;;;;;5053499;28;20176;-70
2021/03/11 04:41:37;;;;;;;1.37;1.30;;;0.30;93.30;;;;;;5063990;28;20884;-69
2021/03/11 04:44:04;;;;;;;1.10;1.00;;;0.30;93.30;;;;;;5046462;28;20220;-71
2021/03/11 04:46:31;;;;;;;0.87;0.80;;;0.30;93.30;;;;;;5059482;28;20202;-71
2021/03/11 04:49:00;;;;;;;0.67;0.60;;;0.40;93.40;;;;;;5065181;28;20274;-70
2021/03/11 04:51:26;;;;;;;1.00;1.00;;;0.40;93.00;;;;;;5064183;28;20358;-71
2021/03/11 04:53:54;;;;;;;0.80;0.80;;;0.50;92.70;;;;;;5065036;28;20280;-71
2021/03/11 04:56:21;;;;;;;0.60;0.60;;;0.50;92.70;;;;;;5038067;28;20176;-70
2021/03/11 04:58:48;;;;;;;1.57;0.90;;;0.50;92.00;;;;;;5060206;28;20209;-70
2021/03/11 05:01:20;;;;;;;1.60;0.80;;;0.50;91.70;;;;;;5063983;28;20187;-69
2021/03/11 05:03:47;;;;;;;0.50;0.50;;;0.50;91.00;;;;;;5058243;28;20186;-70
2021/03/11 05:06:14;;;;;;;0.80;0.60;;;0.50;91.00;;;;;;5063453;28;20179;-70
2021/03/11 05:08:40;;;;;;;0.37;0.30;;;0.50;90.90;;;;;;5062956;28;20179;-70
2021/03/11 05:11:06;;;;;;;0.40;0.40;;;0.60;91.00;;;;;;5059251;28;20196;-71
2021/03/11 05:13:32;;;;;;;0.40;0.40;;;0.60;90.70;;;;;;5061497;28;20183;-70
2021/03/11 05:15:58;;;;;;;0.33;0.33;;;0.60;90.20;;;;;;5056080;28;20191;-71
2021/03/11 05:18:25;;;;;;;0.50;0.50;;;0.60;90.20;;;;;;5062485;28;20224;-71
2021/03/11 05:20:51;;;;;;;0.40;0.40;;;0.60;90.20;;;;;;5047460;28;20195;-71
2021/03/11 05:23:18;;;;;;;0.47;0.47;;;0.60;90.00;;;;;;5065701;28;21025;-70
2021/03/11 05:25:44;;;;;;;0.30;0.30;;;0.60;90.20;;;;;;5060123;28;20286;-71
2021/03/11 05:28:10;;;;;;;0.57;0.57;;;0.60;89.90;;;;;;5064771;28;20297;-71
2021/03/11 05:30:36;;;;;;;0.40;0.40;;;0.60;90.20;;;;;;5061405;28;20663;-69
2021/03/11 05:33:01;;;;;;;0.40;0.40;;;0.60;90.20;;;;;;5065346;28;20190;-71
2021/03/11 05:35:27;;;;;;;0.53;0.53;;;0.60;90.20;;;;;;5036919;28;20184;-71
2021/03/11 05:37:53;;;;;;;0.50;0.50;;;0.70;90.10;;;;;;5063301;28;20250;-70
2021/03/11 05:40:21;;;;;;;0.33;0.23;;;0.70;90.40;;;;;;5062509;28;20288;-69
2021/03/11 05:42:48;;;;;;;0.30;0.30;;;0.70;89.70;;;;;;5070679;28;20236;-71
2021/03/11 05:45:15;;;;;;;0.33;0.20;;;0.70;89.90;;;;;;5063072;28;20233;-70
2021/03/11 05:47:43;;;;;;;0.30;0.30;;;0.70;89.70;;;;;;5068423;28;20187;-71
2021/03/11 05:50:10;;;;;;;0.30;0.30;;;0.80;89.80;;;;;;5046946;28;20248;-70
2021/03/11 05:52:37;;;;;;;0.73;0.30;;;0.80;90.00;;;;;;5064342;28;20198;-70
2021/03/11 05:55:08;;;;;;;0.40;0.40;;;0.80;89.90;;;;;;5064127;28;20201;-72
2021/03/11 05:57:37;;;;;;;0.40;0.40;;;0.90;89.80;;;;;;5063839;28;20457;-72
2021/03/11 06:00:03;;;;;;;0.30;0.30;;;0.90;89.50;;;;;;5063703;28;20178;-73
2021/03/11 06:02:30;;;;;;;0.80;0.57;;;0.90;89.30;;;;;;5064175;28;20183;-73
2021/03/11 06:04:56;;;;;;;0.37;0.27;;;0.90;89.20;;;;;;5045122;28;20467;-73
2021/03/11 06:07:23;;;;;;;0.33;0.33;;;1.00;89.80;;;;;;5060479;28;20171;-74
2021/03/11 06:09:57;;;;;;;0.30;0.30;;;1.00;90.40;;;;;;5062213;28;20248;-76
2021/03/11 06:12:27;;;;;;;0.30;0.30;;;1.10;89.40;;;;;;5048440;28;20701;-78
2021/03/11 06:15:02;;;;;;;0.37;0.37;;;1.10;88.80;;;;;;5047617;28;20201;-74
2021/03/11 06:17:31;;;;;;;0.40;0.40;;;1.20;89.20;;;;;;5061694;28;20260;-75
2021/03/11 06:19:58;;;;;;;0.30;0.30;;;1.20;88.90;;;;;;5042633;28;20218;-75
2021/03/11 06:22:24;;;;;;;0.30;0.30;;;1.20;88.40;;;;;;5061598;28;20178;-75
2021/03/11 06:24:54;;;;;;;0.40;0.40;;;1.10;87.40;;;;;;5060068;28;20175;-75
2021/03/11 06:27:21;;;;;;;1.53;0.50;;;1.10;87.10;;;;;;5046000;28;20183;-73
2021/03/11 06:29:47;;;;;;;0.33;0.33;;;1.20;87.30;;;;;;5065431;28;20264;-75
2021/03/11 06:32:12;;;;;;;0.43;0.40;;;1.20;88.40;;;;;;5065678;28;20175;-76
2021/03/11 06:34:42;;;;;;;0.43;0.43;;;1.20;88.30;;;;;;5064358;28;20194;-75
2021/03/11 06:37:12;;;;;;;0.60;0.60;;;1.30;88.70;;;;;;5037809;28;20217;-77
2021/03/11 06:39:38;;;;;;;0.77;0.77;;;1.30;88.30;;;;;;5052858;28;20175;-78
2021/03/11 06:42:06;;;;;;;0.60;0.60;;;1.30;88.00;;;;;;5061422;28;20191;-74
2021/03/11 06:44:36;;;;;;;0.80;0.80;;;1.30;87.40;;;;;;5048822;28;20944;-78
2021/03/11 06:47:04;;;;;;;0.67;0.67;;;1.30;87.10;;;;;;5058476;28;20203;-78
2021/03/11 06:49:30;;;;;;;0.77;0.77;;;1.40;87.30;;;;;;5044375;28;20202;-74
2021/03/11 06:52:16;;;;;;;0.70;0.70;;;1.30;87.50;;;;;;5042000;28;20186;-76
2021/03/11 06:54:56;;;;;;;0.80;0.80;;;1.30;87.60;;;;;;5064760;28;20706;-76
2021/03/11 06:57:27;;;;;;;0.90;0.90;;;1.30;87.90;;;;;;5060950;28;20596;-75
2021/03/11 06:59:53;;;;;;;1.03;1.03;;;1.40;88.40;;;;;;5057138;28;20179;-75
2021/03/11 07:02:23;;;;;;;0.80;0.80;;;1.40;88.00;;;;;;5064722;28;20974;-75
2021/03/11 07:04:49;;;;;;;0.77;0.77;;;1.50;88.50;;;;;;5044191;28;20558;-75
2021/03/11 07:07:22;;;;;;;0.63;0.63;;;1.50;88.80;;;;;;5063552;28;20754;-78
2021/03/11 07:09:49;;;;;;;9.00;0.80;;;1.50;88.50;;;;;;5052313;28;20272;-77
2021/03/11 07:12:15;;;;;;;0.60;0.60;;;1.60;87.80;;;;;;5049275;28;20548;-78
2021/03/11 07:14:42;;;;;;;1.13;0.73;;;1.60;87.90;;;;;;5060964;28;20574;-74
2021/03/11 07:17:24;;;;;;;0.60;0.60;;;1.70;87.90;;;;;;5064049;28;20183;-75
2021/03/11 07:20:06;;;;;;;0.60;0.60;;;1.70;88.00;;;;;;5050330;28;20226;-74
2021/03/11 07:22:33;;;;;;;0.47;0.47;;;1.80;88.30;;;;;;5076358;28;20207;-75
2021/03/11 07:24:59;;;;;;;0.60;0.50;;;1.80;87.80;;;;;;5049390;28;20247;-76
2021/03/11 07:27:24;;;;;;;0.43;0.40;;;1.90;87.60;;;;;;5045409;28;20211;-77
2021/03/11 07:30:05;;;;;;;0.70;0.70;;;2.00;87.40;;;;;;5051243;28;20191;-77
2021/03/11 07:32:34;;;;;;;0.63;0.63;;;2.10;86.90;;;;;;5049449;28;20186;-77
2021/03/11 07:35:00;;;;;;;0.67;0.60;;;2.10;87.00;;;;;;5045450;28;20274;-78
2021/03/11 07:37:27;;;;;;;0.57;0.57;;;2.20;87.30;;;;;;5068875;28;20207;-77
2021/03/11 07:39:58;;;;;;;0.83;0.60;;;2.20;86.90;;;;;;5050907;28;20190;-78
2021/03/11 07:42:24;;;;;;;0.40;0.40;;;2.20;86.50;;;;;;5041840;28;20203;-77
2021/03/11 07:44:50;;;;;;;0.80;0.80;;;2.30;86.20;;;;;;5068731;28;20209;-78
2021/03/11 07:47:18;;;;;;;0.70;0.70;;;2.30;86.20;;;;;;5046971;28;20237;-78
2021/03/11 07:49:44;;;;;;;0.97;0.83;;;2.30;85.90;;;;;;5070292;28;20836;-77
2021/03/11 07:52:11;;;;;;;1.03;1.03;;;2.30;86.20;;;;;;5067805;28;20558;-78
2021/03/11 07:54:37;;;;;;;1.10;0.97;;;2.30;86.50;;;;;;5064433;28;20179;-78
2021/03/11 07:57:03;;;;;;;0.80;0.80;;;2.30;86.90;;;;;;5045180;28;20187;-77
2021/03/11 07:59:30;;;;;;;1.00;0.80;;;2.30;86.90;;;;;;5063051;28;20547;-76
2021/03/11 08:02:00;;;;;;;1.10;0.93;;;2.30;86.80;;;;;;5049087;28;20277;-76
2021/03/11 08:04:29;;;;;;;3.83;1.00;;;2.30;86.90;;;;;;5052808;28;20206;-76
2021/03/11 08:07:19;;;;;;;1.27;1.27;;;2.40;86.60;;;;;;5063665;28;20179;-78
2021/03/11 08:09:48;;;;;;;1.40;1.40;;;2.40;87.00;;;;;;5071667;28;20199;-77
2021/03/11 08:12:34;;;;;;;1.43;1.27;;;2.50;87.10;;;;;;5043457;28;20658;-75
2021/03/11 08:15:02;;;;;;;1.30;1.30;;;2.50;87.40;;;;;;5045880;28;20639;-77
2021/03/11 08:17:37;;;;;;;1.23;0.97;;;2.70;85.40;;;;;;5060128;28;20203;-78
2021/03/11 08:20:22;;;;;;;1.43;1.37;;;2.70;84.90;;;;;;5067319;28;20186;-78
2021/03/11 08:22:51;;;;;;;2.07;1.07;;;2.70;85.60;;;;;;4963771;28;20218;-77
2021/03/11 08:25:36;;;;;;;1.13;1.10;;;2.80;86.20;;;;;;4986943;28;21072;-78
2021/03/11 08:28:10;;;;;;;1.03;1.03;;;2.90;86.30;;;;;;4964691;28;20630;-75
2021/03/11 08:30:41;;;;;;;2.07;1.20;;;3.00;86.40;;;;;;4965603;28;20212;-78
2021/03/11 08:33:12;;;;;;;0.97;0.97;;;3.10;85.70;;;;;;4948888;28;20277;-79
2021/03/11 08:35:39;;;;;;;2.43;1.30;;;3.30;85.70;;;;;;4966307;28;20194;-78
2021/03/11 08:38:20;;;;;;;1.37;1.37;;;3.50;85.00;;;;;;4949310;28;20707;-76
2021/03/11 08:40:58;;;;;;;6.93;1.67;;;3.60;83.10;;;;;;4966663;28;20767;-77
2021/03/11 08:43:36;;;;;;;2.03;1.80;;;3.70;83.40;;;;;;4974189;28;20188;-78
2021/03/11 08:46:04;;;;;;;3.73;1.00;;;3.90;83.90;;;;;;4947383;28;20214;-77
2021/03/11 08:48:39;;;;;;;1.50;0.87;;;3.90;84.10;;;;;;4955880;28;20193;-77
2021/03/11 08:51:08;;;;;;;1.07;1.07;;;4.10;83.70;;;;;;4968095;28;20934;-78
2021/03/11 08:53:36;;;;;;;1.77;1.30;;;4.20;83.20;;;;;;4962209;28;20749;-78
2021/03/11 08:56:17;;;;;;;1.87;1.73;;;4.30;83.60;;;;;;4968299;28;20194;-78
2021/03/11 08:59:02;;;;;;;1.13;1.13;;;4.40;82.90;;;;;;4952184;28;20232;-80
2021/03/11 09:01:31;;;;;;;1.93;1.83;;;4.40;82.40;;;;;;5050077;28;20175;-78
2021/03/11 09:04:00;;;;;;;1.33;1.27;;;4.40;82.20;;;;;;5037738;28;20634;-80
2021/03/11 09:06:48;;;;;;;1.50;1.40;;;4.40;82.40;;;;;;5066518;28;20242;-79
2021/03/11 09:09:13;;;;;;;1.47;1.37;;;4.50;82.40;;;;;;5038767;28;20184;-79
2021/03/11 09:11:39;;;;;;;1.17;1.10;;;4.70;82.70;;;;;;5042622;28;20931;-79
2021/03/11 09:14:09;;;;;;;1.57;1.57;;;5.00;83.00;;;;;;5062309;28;20248;-79
2021/03/11 09:16:34;;;;;;;1.40;1.30;;;5.30;81.70;;;;;;5047030;28;20637;-80
2021/03/11 09:19:00;;;;;;;1.97;1.87;;;5.50;81.00;;;;;;5049233;28;20195;-79
2021/03/11 09:21:36;;;;;;;2.00;1.90;;;5.60;79.90;;;;;;5066247;28;20217;-80
2021/03/11 09:24:03;;;;;;;1.83;1.73;;;5.60;80.90;;;;;;5064206;28;20175;-80
2021/03/11 09:26:35;;;;;;;2.57;2.37;;;5.60;80.10;;;;;;5070326;28;20265;-79
2021/03/11 09:29:05;;;;;;;1.73;1.63;;;5.50;78.70;;;;;;5045500;28;21059;-79
2021/03/11 09:31:30;;;;;;;1.37;1.27;;;5.30;78.00;;;;;;5073770;28;20920;-79
2021/03/11 09:33:59;;;;;;;1.70;1.60;;;5.10;78.30;;;;;;5070251;28;20266;-79
2021/03/11 09:36:25;;;;;;;1.50;1.40;;;4.80;78.10;;;;;;5042485;28;20677;-80
2021/03/11 09:38:51;;;;;;;2.57;1.30;;;4.60;78.80;;;;;;5043754;28;20253;-79
2021/03/11 09:41:25;;;;;;;2.13;1.83;;;4.50;78.90;;;;;;5051368;28;20249;-79
2021/03/11 09:43:51;;;;;;;1.80;1.70;;;4.40;79.70;;;;;;5049343;28;20554;-78
2021/03/11 09:46:22;;;;;;;1.00;1.00;;;4.20;80.40;;;;;;5062788;28;20203;-79
2021/03/11 09:48:56;;;;;;;1.17;0.97;;;4.10;79.40;;;;;;5067065;28;20179;-78
2021/03/11 09:51:30;;;;;;;2.00;1.90;;;3.90;79.00;;;;;;5050584;28;20182;-78
2021/03/11 09:53:57;;;;;;;2.00;1.87;;;3.80;79.90;;;;;;5064946;28;20194;-79
2021/03/11 09:56:31;;;;;;;2.13;2.03;;;3.70;81.10;;;;;;5048469;28;20221;-78
2021/03/11 09:58:58;;;;;;;1.30;1.20;;;3.70;81.60;;;;;;5065550;28;20614;-79
2021/03/11 10:01:34;;;;;;;0.97;0.97;;;3.70;81.80;;;;;;5046979;28;20187;-76
2021/03/11 10:04:12;;;;;;;0.90;0.90;;;3.70;80.40;;;;;;5065372;28;20174;-77
2021/03/11 10:06:46;;;;;;;1.00;1.00;;;3.70;80.00;;;;;;5062809;28;20193;-78
2021/03/11 10:09:12;;;;;;;0.90;0.90;;;3.70;79.30;;;;;;5053992;28;20631;-78
2021/03/11 10:11:44;;;;;;;1.70;1.60;;;3.70;79.40;;;;;;5046090;28;20179;-79
2021/03/11 10:14:22;;;;;;;1.07;1.00;;;3.70;79.10;;;;;;5043620;28;20187;-78
2021/03/11 10:16:50;;;;;;;0.80;0.80;;;3.60;79.20;;;;;;5060113;28;20938;-78
2021/03/11 10:19:21;;;;;;;1.23;1.03;;;3.60;79.20;;;;;;5053113;28;20230;-77
2021/03/11 10:22:17;;;;;;;1.17;1.17;;;3.50;79.20;;;;;;5062421;28;20283;-77
2021/03/11 10:24:43;;;;;;;0.90;0.90;;;3.40;79.20;;;;;;5045898;28;20727;-75
2021/03/11 10:27:31;;;;;;;1.43;1.40;;;3.30;80.50;;;;;;5061910;28;20183;-74
2021/03/11 10:30:16;;;;;;;1.40;1.40;;;3.20;79.70;;;;;;5060755;28;20250;-76
2021/03/11 10:32:44;;;;;;;2.40;1.70;;;3.10;80.60;;;;;;5060032;28;20177;-76
2021/03/11 10:35:23;;;;;;;2.93;1.47;;;3.00;81.00;;;;;;5060707;28;20174;-75
2021/03/11 10:37:48;;;;;;;1.10;1.00;;;3.00;81.40;;;;;;5041084;28;20205;-79
2021/03/11 10:40:24;;;;;;;1.93;1.83;;;3.00;81.90;;;;;;5042005;28;20187;-80
2021/03/11 10:42:54;;;;;;;1.50;1.00;;;3.00;82.10;;;;;;5056505;28;20193;-78
2021/03/11 10:45:25;;;;;;;1.37;1.27;;;3.00;81.80;;;;;;5041275;28;20216;-77
2021/03/11 10:48:05;;;;;;;1.23;1.23;;;3.00;82.30;;;;;;5054344;28;20183;-79
2021/03/11 10:50:38;;;;;;;1.63;1.53;;;3.00;82.60;;;;;;5042938;28;20703;-79
2021/03/11 10:53:04;;;;;;;1.80;1.70;;;3.00;82.80;;;;;;5057588;28;20196;-76
2021/03/11 10:55:33;;;;;;;1.57;1.47;;;3.00;82.30;;;;;;5036363;28;20191;-75
2021/03/11 10:57:59;;;;;;;2.90;2.07;;;3.00;82.40;;;;;;5049195;28;20203;-75
2021/03/11 11:00:34;;;;;;;1.83;1.70;;;3.00;83.00;;;;;;5046313;28;20267;-74
2021/03/11 11:03:02;;;;;;;2.40;1.57;;;3.10;82.80;;;;;;5051184;28;20285;-75
2021/03/11 11:05:28;;;;;;;1.10;1.10;;;3.10;82.60;;;;;;5056342;28;20214;-78
2021/03/11 11:07:55;;;;;;;1.50;1.43;;;3.00;82.30;;;;;;5040552;28;20191;-78
2021/03/11 11:10:24;;;;;;;2.40;1.10;;;3.10;82.30;;;;;;5039751;28;20199;-76
2021/03/11 11:12:50;;;;;;;2.37;1.57;;;3.10;82.30;;;;;;5059466;28;20237;-75
2021/03/11 11:15:17;;;;;;;4.27;1.80;;;3.10;82.20;;;;;;5068968;28;20190;-75
2021/03/11 11:17:43;;;;;;;1.67;1.63;;;3.10;82.60;;;;;;5070876;28;20240;-73
2021/03/11 11:20:12;;;;;;;1.97;1.50;;;3.10;82.60;;;;;;5064665;28;20218;-74
2021/03/11 11:22:38;;;;;;;1.97;1.87;;;3.20;82.80;;;;;;5064267;28;20183;-74
2021/03/11 11:25:06;;;;;;;1.63;1.53;;;3.30;83.40;;;;;;5062348;28;20206;-73
2021/03/11 11:27:32;;;;;;;2.30;1.17;;;3.30;83.10;;;;;;5058149;28;20652;-77
2021/03/11 11:29:57;;;;;;;1.40;1.30;;;3.40;83.00;;;;;;5065228;28;20187;-74
2021/03/11 11:32:23;;;;;;;1.00;1.00;;;3.40;83.40;;;;;;5063045;28;20202;-75
2021/03/11 11:34:53;;;;;;;1.17;0.93;;;3.50;83.20;;;;;;5063836;28;20187;-76
2021/03/11 11:37:19;;;;;;;0.60;0.60;;;3.50;82.10;;;;;;5052621;28;20207;-76
2021/03/11 11:39:46;;;;;;;0.70;0.70;;;3.60;81.40;;;;;;5066355;28;20199;-76
2021/03/11 11:42:12;;;;;;;0.90;0.90;;;3.60;81.70;;;;;;5057534;28;20572;-75
2021/03/11 11:44:39;;;;;;;1.03;0.93;;;3.60;81.70;;;;;;5061159;28;20564;-75
2021/03/11 11:47:05;;;;;;;2.77;1.10;;;3.60;81.20;;;;;;5064571;28;20199;-75
2021/03/11 11:49:31;;;;;;;1.20;1.10;;;3.60;81.10;;;;;;5059940;28;20193;-75
2021/03/11 11:51:58;;;;;;;0.90;0.90;;;3.50;79.80;;;;;;5061754;28;20999;-75
2021/03/11 11:54:23;;;;;;;1.50;1.40;;;3.40;79.60;;;;;;5056004;28;20191;-76
2021/03/11 11:56:49;;;;;;;0.83;0.83;;;3.40;80.70;;;;;;5071878;28;20191;-75
2021/03/11 11:59:15;;;;;;;1.00;1.00;;;3.40;81.90;;;;;;5063596;28;20203;-74
2021/03/11 12:01:41;;;;;;;1.20;1.20;;;3.50;83.00;;;;;;5054837;28;20188;-74
2021/03/11 12:04:06;;;;;;;1.73;1.30;;;3.60;83.50;;;;;;5065894;28;20183;-74
2021/03/11 12:06:32;;;;;;;2.13;1.40;;;3.70;82.90;;;;;;5066854;28;20248;-75
2021/03/11 12:08:58;;;;;;;1.50;1.50;;;3.80;81.20;;;;;;5067988;28;20573;-75
2021/03/11 12:11:24;;;;;;;1.57;1.57;;;4.00;80.90;;;;;;5061447;28;20187;-75
2021/03/11 12:13:49;;;;;;;1.27;1.27;;;4.10;80.60;;;;;;5057192;28;20187;-75
2021/03/11 12:16:15;;;;;;;1.83;1.73;;;4.20;81.10;;;;;;5067054;28;20205;-74
2021/03/11 12:18:41;;;;;;;3.20;2.03;;;4.20;81.00;;;;;;5067038;28;20271;-75
2021/03/11 12:21:06;;;;;;;2.20;2.10;;;4.30;81.90;;;;;;5063428;28;20231;-75
2021/03/11 12:23:32;;;;;;;1.70;1.70;;;4.30;81.80;;;;;;5066827;28;20261;-75
2021/03/11 12:25:59;;;;;;;2.33;2.23;;;4.30;81.00;;;;;;5057126;28;20211;-75
2021/03/11 12:28:26;;;;;;;2.83;2.60;;;4.20;81.10;;;;;;5040057;28;20244;-76
2021/03/11 12:30:52;;;;;;;2.47;2.27;;;4.20;81.60;;;;;;5056636;28;20262;-76
2021/03/11 12:33:17;;;;;;;2.10;2.00;;;4.20;81.60;;;;;;5067920;28;20195;-75
2021/03/11 12:35:43;;;;;;;2.37;2.27;;;4.10;81.30;;;;;;5049898;28;20186;-76
2021/03/11 12:38:09;;;;;;;2.03;1.90;;;4.00;82.00;;;;;;5053152;28;20196;-76
2021/03/11 12:40:35;;;;;;;2.23;2.03;;;3.90;81.10;;;;;;5079097;28;20183;-75
2021/03/11 12:43:00;;;;;;;2.53;2.33;;;3.90;81.10;;;;;;5081591;28;20179;-76
2021/03/11 12:45:26;;;;;;;2.00;1.90;;;4.00;81.00;;;;;;5059917;28;20609;-76
2021/03/11 12:47:52;;;;;;;2.50;2.00;;;3.90;81.00;;;;;;5060394;28;20649;-76
2021/03/11 12:50:19;;;;;;;2.13;1.93;;;3.90;80.80;;;;;;5077752;28;20190;-75
2021/03/11 12:52:45;;;;;;;3.50;2.13;;;4.00;80.80;;;;;;5045620;28;20205;-76
2021/03/11 12:55:12;;;;;;;2.77;2.57;;;4.10;80.90;;;;;;5048544;28;20266;-76
2021/03/11 12:57:38;;;;;;;3.20;2.50;;;4.20;80.10;;;;;;5052502;28;20205;-75
2021/03/11 13:00:06;;;;;;;2.00;1.90;;;4.40;80.50;;;;;;5062673;28;20960;-75
2021/03/11 13:02:35;;;;;;;2.17;2.07;;;4.70;80.90;;;;;;5067368;28;20179;-74
2021/03/11 13:05:02;;;;;;;4.87;2.07;;;5.00;79.80;;;;;;5067374;28;20218;-75
2021/03/11 13:07:28;;;;;;;2.13;1.87;;;5.20;78.80;;;;;;5068350;28;20236;-76